createdAt,value
2023-01-27T00:04:41.408Z,10.63
2023-01-27T00:09:34.815Z,9.03
2023-01-27T00:14:29.679Z,11.60
2023-01-27T00:29:33.685Z,12.40
2023-01-27T00:34:27.151Z,10.13
2023-01-27T00:39:20.457Z,12.13
2023-01-27T00:44:13.845Z,13.83
2023-01-27T01:38:14.135Z,13.93
2023-01-27T01:43:16.224Z,13.23
2023-01-27T02:08:42.771Z,21.47
2023-01-27T02:13:37.954Z,15.83
2023-01-27T02:18:31.965Z,18.93
2023-01-27T02:23:56.723Z,15.87
2023-01-27T02:28:58.133Z,16.13
2023-01-27T02:33:54.429Z,15.27
2023-01-27T02:38:51.772Z,13.70
2023-01-27T02:43:45.099Z,12.63
2023-01-27T02:48:39.881Z,14.40
2023-01-27T02:53:33.374Z,14.30
2023-01-27T02:58:27.044Z,15.47
2023-01-27T03:03:20.442Z,14.97
2023-01-27T03:08:15.196Z,13.23
2023-01-27T03:13:08.597Z,15.83
2023-01-27T03:18:13.885Z,15.00
2023-01-27T03:23:07.566Z,15.97
2023-01-27T03:28:02.404Z,15.63
2023-01-27T03:32:58.307Z,16.80
2023-01-27T03:38:09.582Z,17.27
2023-01-27T03:43:22.142Z,17.00
2023-01-27T03:48:18.560Z,18.10
2023-01-27T03:53:12.315Z,19.73
2023-01-27T03:58:21.476Z,21.50
2023-01-27T04:03:32.339Z,14.27
2023-01-27T04:08:25.841Z,15.60
2023-01-27T04:13:20.907Z,18.10
2023-01-27T04:18:14.265Z,16.23
2023-01-27T04:23:07.575Z,18.17
2023-01-27T04:28:00.862Z,17.70
2023-01-27T04:32:55.515Z,15.87
2023-01-27T04:37:48.980Z,15.73
2023-01-27T04:42:42.282Z,16.57
2023-01-27T04:47:35.564Z,17.77
2023-01-27T04:52:30.301Z,16.30
2023-01-27T04:57:23.656Z,16.93
2023-01-27T05:02:17.002Z,17.07
2023-01-27T05:07:11.207Z,16.17
2023-01-27T05:12:06.841Z,15.63
2023-01-27T05:17:00.185Z,14.03
2023-01-27T05:21:53.486Z,15.77
2023-01-27T05:26:46.750Z,14.27
2023-01-27T05:31:41.641Z,17.00
2023-01-27T05:36:35.054Z,16.77
2023-01-27T05:41:31.868Z,15.40
2023-01-27T05:46:29.250Z,17.07
2023-01-27T05:51:25.653Z,15.67
2023-01-27T05:56:20.922Z,16.70
2023-01-27T06:01:17.032Z,17.47
2023-01-27T06:06:12.292Z,16.23
2023-01-27T06:11:08.356Z,18.33
2023-01-27T06:16:04.859Z,19.03
2023-01-27T06:20:59.964Z,17.57
2023-01-27T06:25:53.346Z,20.00
2023-01-27T06:30:48.458Z,19.27
2023-01-27T06:35:42.411Z,19.70
2023-01-27T06:40:36.881Z,19.83
2023-01-27T06:45:30.432Z,22.97
2023-01-27T06:50:26.028Z,21.33
2023-01-27T06:55:20.584Z,20.50
2023-01-27T07:00:16.032Z,20.57
2023-01-27T07:05:10.318Z,20.77
2023-01-27T07:10:05.995Z,21.77
2023-01-27T07:14:59.372Z,18.50
2023-01-27T07:19:52.795Z,18.50
2023-01-27T07:24:46.256Z,16.77
2023-01-27T07:29:41.111Z,18.80
2023-01-27T07:34:34.626Z,17.77
2023-01-27T07:39:28.033Z,15.90
2023-01-27T07:44:21.842Z,16.77
2023-01-27T07:49:16.763Z,19.07
2023-01-27T07:54:10.247Z,17.70
2023-01-27T07:59:04.473Z,19.00
2023-01-27T08:03:58.013Z,15.07
2023-01-27T08:08:52.766Z,15.80
2023-01-27T08:13:46.145Z,15.03
2023-01-27T08:18:39.769Z,13.03
2023-01-27T08:23:34.729Z,13.43
2023-01-27T08:28:32.400Z,14.27
2023-01-27T08:33:25.896Z,14.77
2023-01-27T08:38:20.967Z,10.87
2023-01-27T08:43:17.724Z,11.20
2023-01-27T08:48:12.744Z,11.20
2023-01-27T08:53:07.012Z,10.23
2023-01-27T08:58:00.772Z,8.60
2023-01-27T09:02:54.312Z,10.43
2023-01-27T09:07:49.922Z,12.33
2023-01-27T09:12:46.740Z,11.50
2023-01-27T09:17:40.141Z,12.93
2023-01-27T09:22:34.069Z,9.33
2023-01-27T09:27:38.672Z,9.77
2023-01-27T09:32:33.179Z,9.80
2023-01-27T09:37:28.004Z,9.20
2023-01-27T09:42:51.975Z,8.70
2023-01-27T09:48:08.542Z,8.20
2023-01-27T09:53:43.114Z,7.47
2023-01-27T09:58:58.502Z,10.17
2023-01-27T10:04:24.345Z,9.07
2023-01-27T10:09:58.632Z,6.10
2023-01-27T10:15:06.752Z,6.30
2023-01-27T10:20:25.254Z,17.10
2023-01-27T10:25:37.374Z,6.33
2023-01-27T10:30:36.512Z,4.83
2023-01-27T10:35:40.990Z,6.40
2023-01-27T10:40:46.462Z,7.70
2023-01-27T10:45:55.165Z,6.37
2023-01-27T10:50:56.224Z,5.03
2023-01-27T10:56:02.274Z,6.10
2023-01-27T11:01:19.731Z,6.73
2023-01-27T11:06:17.205Z,6.97
2023-01-27T11:11:29.334Z,10.60
2023-01-27T11:16:28.978Z,7.17
2023-01-27T11:21:28.625Z,8.00
2023-01-27T11:26:33.486Z,11.30
2023-01-27T11:31:41.426Z,9.53
2023-01-27T11:36:36.472Z,10.63
2023-01-27T11:41:29.928Z,8.80
2023-01-27T11:46:25.569Z,9.90
2023-01-27T11:51:24.121Z,11.87
2023-01-27T11:56:20.829Z,8.20
2023-01-27T12:01:20.796Z,7.13
2023-01-27T12:06:19.464Z,8.93
2023-01-27T12:11:24.854Z,9.97
2023-01-27T12:16:18.508Z,8.17
2023-01-27T12:21:12.450Z,8.67
2023-01-27T12:26:09.111Z,7.47
2023-01-27T12:31:11.193Z,16.23
2023-01-27T12:36:16.059Z,7.07
2023-01-27T12:41:14.773Z,8.40
2023-01-27T12:46:23.943Z,7.77
2023-01-27T12:51:22.287Z,6.20
2023-01-27T12:56:19.028Z,7.23
2023-01-27T13:01:34.923Z,7.17
2023-01-27T13:06:44.222Z,8.60
2023-01-27T13:11:41.739Z,10.20
2023-01-27T13:16:38.011Z,9.37
2023-01-27T13:21:37.203Z,9.17
2023-01-27T13:26:37.382Z,9.70
2023-01-27T13:31:43.601Z,10.27
2023-01-27T13:36:45.613Z,10.80
2023-01-27T13:41:47.948Z,9.27
2023-01-27T13:46:44.835Z,9.13
2023-01-27T13:51:39.677Z,11.37
2023-01-27T13:56:54.478Z,9.50
2023-01-27T14:02:07.696Z,9.13
2023-01-27T14:07:18.981Z,8.53
2023-01-27T14:12:33.647Z,9.17
2023-01-27T14:17:41.340Z,8.97
2023-01-27T14:22:53.141Z,9.77
2023-01-27T14:27:51.329Z,10.37
2023-01-27T14:32:55.819Z,8.33
2023-01-27T14:38:02.062Z,10.50
2023-01-27T14:43:18.682Z,8.67
2023-01-27T14:48:44.044Z,9.10
2023-01-27T14:53:58.003Z,9.67
2023-01-27T14:59:04.235Z,10.90
2023-01-27T15:04:37.864Z,8.27
2023-01-27T15:09:51.308Z,11.53
2023-01-27T15:15:27.760Z,10.00
2023-01-27T15:20:53.979Z,8.87
2023-01-27T15:25:51.288Z,8.70
2023-01-27T15:31:09.922Z,8.00
2023-01-27T15:36:32.035Z,7.63
2023-01-27T15:41:26.247Z,8.80
2023-01-27T15:46:31.323Z,7.57
2023-01-27T15:51:26.434Z,8.30
2023-01-27T15:56:19.924Z,6.20
2023-01-27T16:01:27.753Z,7.13
2023-01-27T16:06:27.339Z,7.17
2023-01-27T16:11:41.954Z,7.00
2023-01-27T16:16:36.934Z,8.20
2023-01-27T16:21:49.605Z,8.03
2023-01-27T16:26:50.558Z,8.47
2023-01-27T16:31:45.416Z,8.23
2023-01-27T16:36:41.324Z,8.13
2023-01-27T16:41:40.505Z,8.73
2023-01-27T16:46:38.988Z,9.17
2023-01-27T16:51:35.167Z,9.93
2023-01-27T16:56:33.759Z,9.97
2023-01-27T17:01:41.017Z,8.30
2023-01-27T17:06:35.704Z,9.67
2023-01-27T17:11:34.188Z,9.80
2023-01-27T17:16:32.566Z,9.50
2023-01-27T17:21:38.373Z,10.77
2023-01-27T17:26:35.485Z,11.10
2023-01-27T17:31:29.261Z,10.77
2023-01-27T17:36:22.718Z,9.97
2023-01-27T17:41:29.103Z,12.57
2023-01-27T17:46:27.547Z,13.70
2023-01-27T17:51:26.146Z,11.00
2023-01-27T17:56:25.260Z,12.13
2023-01-27T18:01:19.553Z,9.90
2023-01-27T18:06:17.310Z,15.93
2023-01-27T18:11:13.565Z,14.97
2023-01-27T18:16:16.776Z,13.10
2023-01-27T18:21:19.757Z,11.63
2023-01-27T18:26:22.514Z,10.50
2023-01-27T18:31:23.326Z,11.80
2023-01-27T18:36:24.622Z,11.13
2023-01-27T18:41:27.530Z,12.80
2023-01-27T18:46:21.350Z,10.27
2023-01-27T18:51:17.033Z,11.57
2023-01-27T18:56:12.241Z,10.20
2023-01-27T19:01:15.715Z,13.77
2023-01-27T19:06:16.487Z,11.97
2023-01-27T19:11:16.174Z,12.17
2023-01-27T19:16:14.923Z,11.03
2023-01-27T19:21:10.168Z,12.50
2023-01-27T19:26:11.633Z,11.73
2023-01-27T19:31:07.960Z,11.67
2023-01-27T19:36:12.056Z,12.97
2023-01-27T19:41:05.753Z,11.70
2023-01-27T19:45:59.289Z,12.70
2023-01-27T19:50:54.564Z,14.77
2023-01-27T19:55:49.351Z,12.80
2023-01-27T20:00:42.908Z,12.80
2023-01-27T20:05:36.358Z,11.40
2023-01-27T20:10:33.588Z,14.50
2023-01-27T20:15:30.726Z,15.43
2023-01-27T20:20:26.867Z,14.10
2023-01-27T20:25:23.671Z,16.67
2023-01-27T20:30:22.478Z,13.20
2023-01-27T20:35:19.196Z,15.83
2023-01-27T20:40:16.739Z,15.43
2023-01-27T20:45:10.849Z,15.87
2023-01-27T20:50:07.596Z,15.23
2023-01-27T20:55:01.417Z,15.93
2023-01-27T20:59:54.962Z,16.57
2023-01-27T21:04:48.538Z,15.10
2023-01-27T21:09:43.278Z,16.57
2023-01-27T21:14:39.789Z,14.23
2023-01-27T21:19:33.698Z,14.70
2023-01-27T21:24:27.423Z,14.53
2023-01-27T21:29:22.529Z,15.50
2023-01-27T21:34:15.936Z,14.10
2023-01-27T21:39:09.314Z,15.00
2023-01-27T21:44:20.505Z,14.70
2023-01-27T21:49:15.397Z,14.77
2023-01-27T21:54:09.044Z,16.57
2023-01-27T21:59:02.447Z,13.30
2023-01-27T22:03:55.965Z,13.17
2023-01-27T22:08:52.918Z,14.40
2023-01-27T22:13:46.633Z,14.03
2023-01-27T22:18:40.129Z,13.87
2023-01-27T22:23:33.578Z,13.97
2023-01-27T22:28:28.560Z,12.53
2023-01-27T22:33:21.935Z,15.30
2023-01-27T22:38:15.323Z,14.13
2023-01-27T22:43:10.731Z,13.50
2023-01-27T22:48:05.953Z,15.27
2023-01-27T22:52:59.668Z,14.27
2023-01-27T22:57:52.999Z,15.97
2023-01-27T23:02:46.523Z,16.77
2023-01-27T23:07:41.391Z,18.30
2023-01-27T23:12:34.823Z,19.80
2023-01-27T23:17:28.318Z,21.87
2023-01-27T23:22:21.731Z,18.37
2023-01-27T23:27:16.799Z,23.67
2023-01-27T23:32:10.134Z,19.57
2023-01-27T23:37:03.591Z,22.70
2023-01-27T23:41:57.073Z,22.03
2023-01-27T23:46:51.788Z,22.43
2023-01-27T23:51:45.114Z,23.30
2023-01-27T23:56:38.497Z,19.87
